KALN/ALN METAR and TAF weather

Enter ICAO airport designator
Station Type Date Time Source
KALN METAR 2021/09/25 11:35 UTC NOAA

KALN 251135Z AUTO 00000KT 1/2SM FG OVC002 11/09 A3011 RMK AO2 T01100091


Station Type Date Time Source
KALN Decoded METAR 2021/09/25 11:35 UTC NOAA

Alton/St. Louis, St. Louis Regional Airport, IL, United States (KALN) 38-54N 090-03W
Sep 25, 2021 - 07:35 AM EDT / 2021.09.25 1135 UTC
Wind: Calm:0
Visibility: 1/2 mile(s):0
Sky conditions: overcast
Weather: fog
Temperature: 51.8 F (11.0 C)
Dew Point: 48.4 F (9.1 C)
Relative Humidity: 88%
Pressure (altimeter): 30.11 in. Hg (1019 hPa)
ob: KALN 251135Z AUTO 00000KT 1/2SM FG OVC002 11/09 A3011 RMK AO2 T01100091
cycle: 11

Station Type Date Time Source
KALN TAF UTC NOAA

Error!

Example: see airport list